This is the latest recevied weather packets stored in our database for station/object DB0MGN-WX. If no packets are shown the sender has not sent any weather packets the latest 1 day(s).
| Time | Temp. | Humidity | Pressure | Rain* | Wind** | Luminosity | Snow |
|---|---|---|---|---|---|---|---|
| 1778075116 | 19.44° C | 50% | 1004.4 hPa | - | - | - | - |
| 1778075056 | 19.44° C | 50% | 1004.4 hPa | - | - | - | - |
| 1778074455 | 18.89° C | 50% | 1004.4 hPa | - | - | - | - |
| 1778074335 | 19.44° C | 48% | 1004.5 hPa | - | - | - | - |
| 1778074275 | 19.44° C | 49% | 1004.5 hPa | - | - | - | - |
| 1778074215 | 19.44° C | 50% | 1004.5 hPa | - | - | - | - |
| 1778074155 | 19.44° C | 50% | 1004.5 hPa | - | - | - | - |
| 1778074095 | 19.44° C | 51% | 1004.5 hPa | - | - | - | - |
| 1778073434 | 18.33° C | 52% | 1004.5 hPa | - | - | - | - |
| 1778073374 | 18.33° C | 52% | 1004.5 hPa | - | - | - | - |
| 1778073314 | 18.89° C | 51% | 1004.6 hPa | - | - | - | - |
| 1778073254 | 18.89° C | 52% | 1004.5 hPa | - | - | - | - |
| 1778073194 | 18.89° C | 52% | 1004.6 hPa | - | - | - | - |
| 1778073134 | 18.89° C | 52% | 1004.6 hPa | - | - | - | - |
| 1778073074 | 18.89° C | 51% | 1004.7 hPa | - | - | - | - |
| 1778072473 | 18.89° C | 53% | 1004.6 hPa | - | - | - | - |
| 1778072413 | 18.89° C | 53% | 1004.7 hPa | - | - | - | - |
| 1778072353 | 18.33° C | 53% | 1004.6 hPa | - | - | - | - |
| 1778072293 | 18.33° C | 54% | 1004.6 hPa | - | - | - | - |
| 1778072233 | 18.33° C | 53% | 1004.7 hPa | - | - | - | - |
| 1778072173 | 18.33° C | 52% | 1004.5 hPa | - | - | - | - |
| 1778072113 | 18.89° C | 51% | 1004.6 hPa | - | - | - | - |
| 1778071572 | 18.33° C | 55% | 1004.7 hPa | - | - | - | - |
| 1778071512 | 18.33° C | 56% | 1004.7 hPa | - | - | - | - |
| 1778071452 | 18.33° C | 55% | 1004.5 hPa | - | - | - | - |
* Rain since midnight (hover to see other rain measurements)
** Current wind speed in m/s (hover to see current wind gust speed)